sensor_id;sensor_type;location;lat;lon;timestamp;temperature;humidity
44731;DHT22;30458;47.448;19.032;2022-12-10T00:01:43;8.40;99.90
44731;DHT22;30458;47.448;19.032;2022-12-10T00:11:44;8.40;99.90
44731;DHT22;30458;47.448;19.032;2022-12-10T00:21:45;8.40;99.90
44731;DHT22;30458;47.448;19.032;2022-12-10T00:31:48;8.50;99.90
44731;DHT22;30458;47.448;19.032;2022-12-10T00:41:49;8.40;99.90
44731;DHT22;30458;47.448;19.032;2022-12-10T00:51:52;8.50;99.90
44731;DHT22;30458;47.448;19.032;2022-12-10T01:01:57;8.40;99.90
44731;DHT22;30458;47.448;19.032;2022-12-10T01:12:04;8.50;99.90
44731;DHT22;30458;47.448;19.032;2022-12-10T01:22:05;8.50;99.90
44731;DHT22;30458;47.448;19.032;2022-12-10T01:32:05;8.60;99.90
44731;DHT22;30458;47.448;19.032;2022-12-10T01:42:08;8.60;99.90
44731;DHT22;30458;47.448;19.032;2022-12-10T01:52:12;8.70;99.90
44731;DHT22;30458;47.448;19.032;2022-12-10T02:02:43;8.70;99.90
44731;DHT22;30458;47.448;19.032;2022-12-10T02:13:39;8.70;99.90
44731;DHT22;30458;47.448;19.032;2022-12-10T02:33:28;8.80;99.90
44731;DHT22;30458;47.448;19.032;2022-12-10T02:43:32;8.90;99.90
44731;DHT22;30458;47.448;19.032;2022-12-10T02:53:41;8.60;99.90
44731;DHT22;30458;47.448;19.032;2022-12-10T03:03:50;8.50;99.90
44731;DHT22;30458;47.448;19.032;2022-12-10T03:14:03;8.60;99.90
44731;DHT22;30458;47.448;19.032;2022-12-10T03:24:09;8.50;99.90
44731;DHT22;30458;47.448;19.032;2022-12-10T03:34:11;8.70;99.90
44731;DHT22;30458;47.448;19.032;2022-12-10T03:44:31;8.70;99.90
44731;DHT22;30458;47.448;19.032;2022-12-10T03:54:37;8.70;99.90
44731;DHT22;30458;47.448;19.032;2022-12-10T04:04:41;8.80;99.90
44731;DHT22;30458;47.448;19.032;2022-12-10T04:14:42;8.30;99.90
44731;DHT22;30458;47.448;19.032;2022-12-10T04:25:15;8.40;99.90
44731;DHT22;30458;47.448;19.032;2022-12-10T04:35:37;8.50;99.90
44731;DHT22;30458;47.448;19.032;2022-12-10T04:45:38;8.20;99.90
44731;DHT22;30458;47.448;19.032;2022-12-10T04:55:41;8.10;99.90
44731;DHT22;30458;47.448;19.032;2022-12-10T05:05:42;7.90;99.90
44731;DHT22;30458;47.448;19.032;2022-12-10T05:15:43;8.10;99.90
44731;DHT22;30458;47.448;19.032;2022-12-10T05:25:46;8.20;99.90
44731;DHT22;30458;47.448;19.032;2022-12-10T05:36:02;8.20;99.90
44731;DHT22;30458;47.448;19.032;2022-12-10T05:46:09;8.30;99.90
44731;DHT22;30458;47.448;19.032;2022-12-10T05:56:15;8.40;99.90
44731;DHT22;30458;47.448;19.032;2022-12-10T06:06:21;8.20;99.90
44731;DHT22;30458;47.448;19.032;2022-12-10T06:16:27;8.20;99.90
44731;DHT22;30458;47.448;19.032;2022-12-10T06:26:28;8.30;99.90
44731;DHT22;30458;47.448;19.032;2022-12-10T06:36:33;8.40;99.90
44731;DHT22;30458;47.448;19.032;2022-12-10T06:46:39;8.30;99.90
44731;DHT22;30458;47.448;19.032;2022-12-10T06:56:40;8.20;99.90
44731;DHT22;30458;47.448;19.032;2022-12-10T07:06:40;8.20;99.90
44731;DHT22;30458;47.448;19.032;2022-12-10T07:16:41;8.10;99.90
44731;DHT22;30458;47.448;19.032;2022-12-10T07:26:44;7.90;99.90
44731;DHT22;30458;47.448;19.032;2022-12-10T07:36:45;7.80;99.90
44731;DHT22;30458;47.448;19.032;2022-12-10T07:46:45;7.80;99.90
44731;DHT22;30458;47.448;19.032;2022-12-10T07:56:48;7.60;99.90
44731;DHT22;30458;47.448;19.032;2022-12-10T08:06:54;7.60;99.90
44731;DHT22;30458;47.448;19.032;2022-12-10T08:16:57;7.80;99.90
44731;DHT22;30458;47.448;19.032;2022-12-10T08:26:58;7.90;99.90
44731;DHT22;30458;47.448;19.032;2022-12-10T08:36:59;8.10;99.90
44731;DHT22;30458;47.448;19.032;2022-12-10T08:46:59;8.50;99.90
44731;DHT22;30458;47.448;19.032;2022-12-10T08:57:00;8.40;99.90
44731;DHT22;30458;47.448;19.032;2022-12-10T09:07:02;8.30;99.90
44731;DHT22;30458;47.448;19.032;2022-12-10T09:17:04;8.30;99.90
44731;DHT22;30458;47.448;19.032;2022-12-10T09:27:07;8.40;99.90
44731;DHT22;30458;47.448;19.032;2022-12-10T09:37:08;8.40;99.90
44731;DHT22;30458;47.448;19.032;2022-12-10T09:47:10;7.90;99.90
44731;DHT22;30458;47.448;19.032;2022-12-10T09:57:26;7.80;99.90
44731;DHT22;30458;47.448;19.032;2022-12-10T10:07:29;8.00;99.90
44731;DHT22;30458;47.448;19.032;2022-12-10T10:17:35;8.10;99.90
44731;DHT22;30458;47.448;19.032;2022-12-10T10:27:39;8.10;99.90
44731;DHT22;30458;47.448;19.032;2022-12-10T10:37:42;8.30;99.90
44731;DHT22;30458;47.448;19.032;2022-12-10T10:47:45;8.40;99.90
44731;DHT22;30458;47.448;19.032;2022-12-10T10:57:46;8.50;99.90
44731;DHT22;30458;47.448;19.032;2022-12-10T11:08:00;8.60;99.90
44731;DHT22;30458;47.448;19.032;2022-12-10T11:18:31;8.20;99.90
44731;DHT22;30458;47.448;19.032;2022-12-10T11:59:56;8.00;99.90
44731;DHT22;30458;47.448;19.032;2022-12-10T12:10:43;7.90;99.90
44731;DHT22;30458;47.448;19.032;2022-12-10T12:20:44;7.90;99.90
44731;DHT22;30458;47.448;19.032;2022-12-10T12:30:53;7.90;99.90
44731;DHT22;30458;47.448;19.032;2022-12-10T12:51:05;7.80;99.90
44731;DHT22;30458;47.448;19.032;2022-12-10T13:01:30;7.70;99.90
44731;DHT22;30458;47.448;19.032;2022-12-10T13:11:36;7.80;99.90
44731;DHT22;30458;47.448;19.032;2022-12-10T13:22:04;7.80;99.90
44731;DHT22;30458;47.448;19.032;2022-12-10T13:32:15;7.60;99.90
44731;DHT22;30458;47.448;19.032;2022-12-10T13:52:38;7.70;99.90
44731;DHT22;30458;47.448;19.032;2022-12-10T14:03:19;7.60;99.90
44731;DHT22;30458;47.448;19.032;2022-12-10T14:13:33;7.40;99.90
44731;DHT22;30458;47.448;19.032;2022-12-10T14:23:47;7.30;99.90
44731;DHT22;30458;47.448;19.032;2022-12-10T14:33:49;7.40;99.90
44731;DHT22;30458;47.448;19.032;2022-12-10T14:43:54;7.50;99.90
44731;DHT22;30458;47.448;19.032;2022-12-10T14:53:54;7.60;99.90
44731;DHT22;30458;47.448;19.032;2022-12-10T15:03:58;7.60;99.90
44731;DHT22;30458;47.448;19.032;2022-12-10T15:14:01;7.70;99.90
44731;DHT22;30458;47.448;19.032;2022-12-10T15:34:20;7.60;99.90
44731;DHT22;30458;47.448;19.032;2022-12-10T15:44:37;7.50;99.90
44731;DHT22;30458;47.448;19.032;2022-12-10T15:54:41;7.50;99.90
44731;DHT22;30458;47.448;19.032;2022-12-10T16:04:44;7.70;99.90
44731;DHT22;30458;47.448;19.032;2022-12-10T16:14:50;7.60;99.90
44731;DHT22;30458;47.448;19.032;2022-12-10T16:24:51;7.60;99.90
44731;DHT22;30458;47.448;19.032;2022-12-10T16:34:52;7.70;99.90
44731;DHT22;30458;47.448;19.032;2022-12-10T16:44:54;7.70;99.90
44731;DHT22;30458;47.448;19.032;2022-12-10T16:54:58;7.90;99.90
44731;DHT22;30458;47.448;19.032;2022-12-10T17:05:00;7.90;99.90
44731;DHT22;30458;47.448;19.032;2022-12-10T17:15:04;7.70;99.90
44731;DHT22;30458;47.448;19.032;2022-12-10T17:25:05;7.60;99.90
44731;DHT22;30458;47.448;19.032;2022-12-10T17:35:09;7.60;99.90
44731;DHT22;30458;47.448;19.032;2022-12-10T17:45:15;7.70;99.90
44731;DHT22;30458;47.448;19.032;2022-12-10T17:55:16;7.70;99.90
44731;DHT22;30458;47.448;19.032;2022-12-10T18:05:19;7.80;99.90
44731;DHT22;30458;47.448;19.032;2022-12-10T18:15:20;7.90;99.90
44731;DHT22;30458;47.448;19.032;2022-12-10T18:25:27;7.70;99.90
44731;DHT22;30458;47.448;19.032;2022-12-10T18:35:31;7.70;99.90
44731;DHT22;30458;47.448;19.032;2022-12-10T18:45:33;7.80;99.90
44731;DHT22;30458;47.448;19.032;2022-12-10T18:55:34;7.90;99.90
44731;DHT22;30458;47.448;19.032;2022-12-10T19:05:34;7.80;99.90
44731;DHT22;30458;47.448;19.032;2022-12-10T19:15:35;7.70;99.90
44731;DHT22;30458;47.448;19.032;2022-12-10T19:25:39;7.80;99.90
44731;DHT22;30458;47.448;19.032;2022-12-10T19:35:39;7.80;99.90
44731;DHT22;30458;47.448;19.032;2022-12-10T19:45:40;7.90;99.90
44731;DHT22;30458;47.448;19.032;2022-12-10T19:55:41;8.00;99.90
44731;DHT22;30458;47.448;19.032;2022-12-10T20:05:44;8.10;99.90
44731;DHT22;30458;47.448;19.032;2022-12-10T20:15:46;8.20;99.90
44731;DHT22;30458;47.448;19.032;2022-12-10T20:25:51;8.00;99.90
44731;DHT22;30458;47.448;19.032;2022-12-10T20:35:55;7.70;99.90
44731;DHT22;30458;47.448;19.032;2022-12-10T20:45:59;7.30;99.90
44731;DHT22;30458;47.448;19.032;2022-12-10T20:56:00;7.20;99.90
44731;DHT22;30458;47.448;19.032;2022-12-10T21:06:01;7.10;99.90
44731;DHT22;30458;47.448;19.032;2022-12-10T21:16:05;7.00;99.90
44731;DHT22;30458;47.448;19.032;2022-12-10T21:26:06;7.10;99.90
44731;DHT22;30458;47.448;19.032;2022-12-10T21:36:10;7.00;99.90
44731;DHT22;30458;47.448;19.032;2022-12-10T21:46:11;7.00;99.90
44731;DHT22;30458;47.448;19.032;2022-12-10T21:56:15;7.00;99.90
44731;DHT22;30458;47.448;19.032;2022-12-10T22:06:22;7.10;99.90
44731;DHT22;30458;47.448;19.032;2022-12-10T22:16:23;7.20;99.90
44731;DHT22;30458;47.448;19.032;2022-12-10T22:26:24;7.40;99.90
44731;DHT22;30458;47.448;19.032;2022-12-10T22:36:26;7.40;99.90
44731;DHT22;30458;47.448;19.032;2022-12-10T22:46:33;7.20;99.90
44731;DHT22;30458;47.448;19.032;2022-12-10T22:56:34;7.20;99.90
44731;DHT22;30458;47.448;19.032;2022-12-10T23:06:37;7.20;99.90
44731;DHT22;30458;47.448;19.032;2022-12-10T23:16:40;7.20;99.90
44731;DHT22;30458;47.448;19.032;2022-12-10T23:26:46;7.30;99.90
44731;DHT22;30458;47.448;19.032;2022-12-10T23:36:46;7.10;99.90
44731;DHT22;30458;47.448;19.032;2022-12-10T23:46:49;6.80;99.90
44731;DHT22;30458;47.448;19.032;2022-12-10T23:56:50;6.80;99.90
